Time;durP1;ratioP1;P1;durP2;ratioP2;P2;SDS_P1;SDS_P2;PMS_P1;PMS_P2;Temp;Humidity;BMP_temperature;BMP_pressure;BME280_temperature;BME280_humidity;BME280_pressure;Samples;Min_cycle;Max_cycle;Signal;HPM_P1;HPM_P2
2020/12/25 00:04:36;;;;;;;5.97;5.37;;;;;;;;;;4710089;28;20226;-61
2020/12/25 00:07:03;;;;;;;6.12;5.53;;;;;;;;;;4188468;34;20169;-62
2020/12/25 00:09:29;;;;;;;5.97;5.47;;;;;;;;;;4195622;34;20117;-62
2020/12/25 00:11:55;;;;;;;6.12;5.53;;;;;;;;;;4205599;34;20105;-62
2020/12/25 00:14:21;;;;;;;6.65;6.05;;;;;;;;;;4205180;34;20102;-63
2020/12/25 00:16:47;;;;;;;6.05;5.45;;;;;;;;;;4205415;34;20137;-62
2020/12/25 00:19:13;;;;;;;6.25;5.65;;;;;;;;;;4205497;34;20205;-62
2020/12/25 00:21:38;;;;;;;6.20;5.60;;;;;;;;;;4205515;34;20136;-62
2020/12/25 00:24:04;;;;;;;6.43;5.82;;;;;;;;;;4205160;34;20132;-62
2020/12/25 00:26:31;;;;;;;6.25;5.65;;;;;;;;;;4205284;34;20102;-62
2020/12/25 00:28:58;;;;;;;6.43;5.82;;;;;;;;;;4205302;34;20147;-62
2020/12/25 00:31:34;;;;;;;6.75;6.15;;;;;;;;;;4205503;34;20116;-62
2020/12/25 00:34:02;;;;;;;7.12;6.43;;;;;;;;;;4205116;34;20116;-62
2020/12/25 00:36:34;;;;;;;7.10;6.50;;;;;;;;;;4205407;34;20197;-62
2020/12/25 00:39:01;;;;;;;7.30;6.53;;;;;;;;;;4205031;34;20192;-62
2020/12/25 00:41:27;;;;;;;7.68;6.87;;;;;;;;;;4204616;34;20209;-61
2020/12/25 00:43:53;;;;;;;7.55;6.85;;;;;;;;;;4205049;34;20109;-61
2020/12/25 00:46:19;;;;;;;7.35;6.65;;;;;;;;;;4205175;34;20192;-63
2020/12/25 00:48:45;;;;;;;7.18;6.47;;;;;;;;;;4204997;34;20110;-63
2020/12/25 00:51:15;;;;;;;7.40;6.70;;;;;;;;;;4205046;34;20131;-63
2020/12/25 00:53:41;;;;;;;7.50;6.80;;;;;;;;;;4204984;34;20121;-63
2020/12/25 00:56:07;;;;;;;8.57;7.07;;;;;;;;;;4204982;34;20124;-63
2020/12/25 00:58:32;;;;;;;7.68;6.90;;;;;;;;;;4192185;34;20093;-63
2020/12/25 01:00:58;;;;;;;8.43;7.55;;;;;;;;;;4204921;34;20446;-63
2020/12/25 01:03:24;;;;;;;8.80;7.87;;;;;;;;;;4205108;34;20098;-63
2020/12/25 01:05:50;;;;;;;8.35;7.55;;;;;;;;;;4204611;34;20144;-63
2020/12/25 01:08:17;;;;;;;10.80;9.70;;;;;;;;;;4204823;34;20189;-63
2020/12/25 01:10:43;;;;;;;8.43;7.53;;;;;;;;;;4192107;34;20120;-63
2020/12/25 01:13:09;;;;;;;9.13;8.02;;;;;;;;;;4204937;34;20094;-63
2020/12/25 01:15:35;;;;;;;8.68;7.82;;;;;;;;;;4204963;34;20153;-63
2020/12/25 01:18:01;;;;;;;7.95;7.25;;;;;;;;;;4205122;34;20200;-63
2020/12/25 01:20:26;;;;;;;8.88;8.07;;;;;;;;;;4204979;34;20113;-63
2020/12/25 01:22:52;;;;;;;9.45;8.45;;;;;;;;;;4204797;34;20160;-63
2020/12/25 01:25:18;;;;;;;10.05;9.05;;;;;;;;;;4204845;34;20235;-63
2020/12/25 01:27:44;;;;;;;9.77;8.77;;;;;;;;;;4204716;34;20181;-63
2020/12/25 01:30:10;;;;;;;9.65;8.27;;;;;;;;;;4204760;34;20113;-63
2020/12/25 01:32:36;;;;;;;8.93;8.02;;;;;;;;;;4204775;34;20112;-63
2020/12/25 01:35:02;;;;;;;10.02;9.02;;;;;;;;;;4204587;34;20140;-63
2020/12/25 01:37:28;;;;;;;10.10;9.02;;;;;;;;;;4204698;34;20190;-63
2020/12/25 01:39:54;;;;;;;10.57;9.55;;;;;;;;;;4204837;34;20113;-63
2020/12/25 01:42:20;;;;;;;10.73;9.73;;;;;;;;;;4204603;34;20125;-63
2020/12/25 01:44:45;;;;;;;10.60;9.50;;;;;;;;;;4204581;34;20609;-63
2020/12/25 01:47:16;;;;;;;10.27;9.27;;;;;;;;;;4204624;34;20680;-63
2020/12/25 01:49:43;;;;;;;11.50;10.13;;;;;;;;;;4204671;34;20140;-63
2020/12/25 01:52:09;;;;;;;11.05;9.95;;;;;;;;;;4180453;34;20122;-63
2020/12/25 01:54:35;;;;;;;11.85;10.65;;;;;;;;;;4192814;34;20139;-63
2020/12/25 01:57:01;;;;;;;10.80;9.80;;;;;;;;;;4182304;34;20544;-63
2020/12/25 01:59:27;;;;;;;10.32;9.40;;;;;;;;;;4206716;34;20128;-63
2020/12/25 02:01:53;;;;;;;11.40;10.35;;;;;;;;;;4193824;34;20118;-63
2020/12/25 02:04:19;;;;;;;11.20;10.10;;;;;;;;;;4193497;34;20209;-63
2020/12/25 02:06:45;;;;;;;11.63;10.50;;;;;;;;;;4206301;34;20516;-63
2020/12/25 02:09:11;;;;;;;11.18;10.07;;;;;;;;;;4193629;34;20497;-63
2020/12/25 02:11:48;;;;;;;11.23;10.13;;;;;;;;;;4206503;34;20206;-63
2020/12/25 02:14:46;;;;;;;10.57;9.52;;;;;;;;;;4206688;34;20105;-59
2020/12/25 02:17:23;;;;;;;11.18;9.68;;;;;;;;;;4193920;34;20204;-59
2020/12/25 02:26:06;;;;;;;10.70;9.43;;;;;;;;;;4155382;34;20123;-60
2020/12/25 02:28:32;;;;;;;10.73;9.63;;;;;;;;;;4151558;34;20126;-58
2020/12/25 02:30:58;;;;;;;10.57;9.57;;;;;;;;;;4166429;34;20125;-58
2020/12/25 02:33:24;;;;;;;10.75;9.65;;;;;;;;;;4206246;34;20110;-58
2020/12/25 02:35:49;;;;;;;11.15;9.98;;;;;;;;;;4206078;34;20121;-58
2020/12/25 02:38:16;;;;;;;10.98;9.15;;;;;;;;;;4206140;34;20094;-58
2020/12/25 02:40:42;;;;;;;9.45;8.45;;;;;;;;;;4206103;34;20128;-57
2020/12/25 02:43:07;;;;;;;10.68;9.68;;;;;;;;;;4206177;34;20521;-57
2020/12/25 02:45:33;;;;;;;10.65;9.55;;;;;;;;;;4205972;34;20459;-57
2020/12/25 02:47:59;;;;;;;12.10;10.57;;;;;;;;;;4206233;34;20133;-58
2020/12/25 02:50:25;;;;;;;9.52;8.60;;;;;;;;;;4205955;34;20097;-58
2020/12/25 02:52:51;;;;;;;10.75;9.65;;;;;;;;;;4206190;34;20118;-57
2020/12/25 02:55:17;;;;;;;10.20;9.00;;;;;;;;;;4205854;34;20110;-58
2020/12/25 02:57:43;;;;;;;10.13;8.50;;;;;;;;;;4206023;34;20597;-57
2020/12/25 03:00:09;;;;;;;10.73;9.52;;;;;;;;;;4205918;34;20525;-58
2020/12/25 03:02:34;;;;;;;10.52;9.32;;;;;;;;;;4193030;34;20157;-59
2020/12/25 03:05:00;;;;;;;12.82;9.63;;;;;;;;;;4205501;34;20141;-59
2020/12/25 03:07:26;;;;;;;10.98;9.68;;;;;;;;;;4199084;34;20121;-58
2020/12/25 03:09:53;;;;;;;11.82;9.63;;;;;;;;;;4219591;34;20111;-60
2020/12/25 03:12:19;;;;;;;10.23;9.23;;;;;;;;;;4219821;34;20125;-58
2020/12/25 03:14:45;;;;;;;11.15;9.98;;;;;;;;;;4211442;34;20224;-60
2020/12/25 03:17:11;;;;;;;12.13;10.27;;;;;;;;;;4204094;34;20110;-58
2020/12/25 03:19:37;;;;;;;12.18;9.85;;;;;;;;;;4202953;34;20128;-59
2020/12/25 03:22:03;;;;;;;11.68;10.48;;;;;;;;;;4203483;34;20589;-58
2020/12/25 03:24:29;;;;;;;10.30;9.18;;;;;;;;;;4203368;34;20142;-58
2020/12/25 03:26:54;;;;;;;10.65;9.63;;;;;;;;;;4203185;34;20543;-57
2020/12/25 03:29:20;;;;;;;11.20;9.80;;;;;;;;;;4190062;34;20129;-57
2020/12/25 03:31:47;;;;;;;10.10;9.02;;;;;;;;;;4203581;34;20137;-57
2020/12/25 03:34:13;;;;;;;11.75;9.55;;;;;;;;;;4203081;34;20129;-59
2020/12/25 03:36:39;;;;;;;9.98;8.85;;;;;;;;;;4190307;34;20128;-57
2020/12/25 03:39:05;;;;;;;10.23;9.23;;;;;;;;;;4203518;34;20553;-59
2020/12/25 03:41:31;;;;;;;9.77;8.52;;;;;;;;;;4204237;34;20125;-60
2020/12/25 03:43:57;;;;;;;8.95;8.05;;;;;;;;;;4192707;34;20121;-60
2020/12/25 03:46:23;;;;;;;9.55;8.65;;;;;;;;;;4205584;34;20133;-59
2020/12/25 03:48:48;;;;;;;9.27;8.40;;;;;;;;;;4205379;34;20141;-58
2020/12/25 03:51:14;;;;;;;9.25;8.38;;;;;;;;;;4205570;34;20110;-60
2020/12/25 03:53:40;;;;;;;9.15;8.25;;;;;;;;;;4205485;34;20193;-58
2020/12/25 03:56:06;;;;;;;9.40;8.27;;;;;;;;;;4181183;34;20128;-59
2020/12/25 03:58:32;;;;;;;8.43;7.62;;;;;;;;;;4205496;34;20224;-58
2020/12/25 04:00:58;;;;;;;9.73;8.73;;;;;;;;;;4205616;34;20145;-59
2020/12/25 04:03:24;;;;;;;9.20;8.20;;;;;;;;;;4205399;34;20581;-60
2020/12/25 04:05:50;;;;;;;9.05;8.15;;;;;;;;;;4204720;34;20125;-59
2020/12/25 04:08:15;;;;;;;8.77;7.97;;;;;;;;;;4192373;34;20116;-59
2020/12/25 04:10:42;;;;;;;8.95;8.13;;;;;;;;;;4205159;34;20117;-58
2020/12/25 04:13:08;;;;;;;9.00;8.13;;;;;;;;;;4205595;34;20184;-58
2020/12/25 04:15:33;;;;;;;9.10;8.25;;;;;;;;;;4205158;34;20533;-59
2020/12/25 04:17:59;;;;;;;8.63;7.70;;;;;;;;;;4204582;34;20461;-59
2020/12/25 04:20:25;;;;;;;9.20;8.40;;;;;;;;;;4204968;34;20118;-59
2020/12/25 04:22:51;;;;;;;9.77;8.88;;;;;;;;;;4205186;34;20140;-59
2020/12/25 04:25:17;;;;;;;8.73;7.82;;;;;;;;;;4205326;34;20529;-60
2020/12/25 04:27:43;;;;;;;8.48;7.68;;;;;;;;;;4205169;34;20121;-60
2020/12/25 04:30:09;;;;;;;8.30;7.53;;;;;;;;;;4205174;34;20129;-58
2020/12/25 04:32:35;;;;;;;8.52;7.72;;;;;;;;;;4205276;34;20226;-58
2020/12/25 04:35:00;;;;;;;8.13;7.43;;;;;;;;;;4205077;34;20112;-58
2020/12/25 04:37:27;;;;;;;9.15;8.25;;;;;;;;;;4205195;34;20450;-59
2020/12/25 04:39:53;;;;;;;8.90;8.10;;;;;;;;;;4205083;34;20518;-59
2020/12/25 04:42:19;;;;;;;9.00;8.10;;;;;;;;;;4205175;34;20109;-59
2020/12/25 04:44:45;;;;;;;9.23;8.32;;;;;;;;;;4181141;34;20102;-59
2020/12/25 04:47:11;;;;;;;8.93;8.02;;;;;;;;;;4205321;34;20101;-59
2020/12/25 04:49:37;;;;;;;9.77;8.70;;;;;;;;;;4204784;34;20229;-59
2020/12/25 04:52:07;;;;;;;10.10;9.20;;;;;;;;;;4192185;34;20177;-58
2020/12/25 04:54:33;;;;;;;9.75;8.77;;;;;;;;;;4204599;34;20120;-60
2020/12/25 04:56:59;;;;;;;10.05;9.05;;;;;;;;;;4204668;34;20151;-59
2020/12/25 04:59:28;;;;;;;10.18;9.15;;;;;;;;;;4191804;34;20549;-59
2020/12/25 05:01:55;;;;;;;10.52;9.52;;;;;;;;;;4204594;34;20522;-59
2020/12/25 05:04:22;;;;;;;10.48;9.48;;;;;;;;;;4204546;34;20551;-59
2020/12/25 05:06:53;;;;;;;11.70;10.35;;;;;;;;;;4207270;34;20512;-59
2020/12/25 05:09:26;;;;;;;11.43;10.00;;;;;;;;;;4206151;34;20097;-59
2020/12/25 05:11:56;;;;;;;11.95;10.63;;;;;;;;;;4218730;34;20116;-59
2020/12/25 05:14:27;;;;;;;9.88;8.98;;;;;;;;;;4205424;34;20466;-59
2020/12/25 05:16:53;;;;;;;11.25;10.15;;;;;;;;;;4218551;34;20172;-59
2020/12/25 05:19:23;;;;;;;10.68;9.68;;;;;;;;;;4218502;34;20507;-59
2020/12/25 05:21:49;;;;;;;11.77;10.55;;;;;;;;;;4205749;34;20118;-59
2020/12/25 05:24:14;;;;;;;12.52;11.30;;;;;;;;;;4205423;34;20124;-60
2020/12/25 05:26:40;;;;;;;10.82;9.73;;;;;;;;;;4218288;34;20481;-60
2020/12/25 05:29:06;;;;;;;11.63;10.52;;;;;;;;;;4193804;34;20553;-59
2020/12/25 05:31:32;;;;;;;12.88;11.57;;;;;;;;;;4194081;34;20583;-59
2020/12/25 05:33:58;;;;;;;12.88;11.60;;;;;;;;;;4218223;34;20546;-59
2020/12/25 05:36:28;;;;;;;13.07;11.75;;;;;;;;;;4218145;34;20119;-59
2020/12/25 05:38:55;;;;;;;12.65;11.32;;;;;;;;;;4218313;34;20442;-59
2020/12/25 05:41:21;;;;;;;13.98;12.40;;;;;;;;;;4218276;34;20121;-60
2020/12/25 05:43:48;;;;;;;13.05;11.65;;;;;;;;;;4194104;34;20120;-59
2020/12/25 05:46:14;;;;;;;26.95;16.23;;;;;;;;;;4218215;34;20140;-59
2020/12/25 05:48:40;;;;;;;14.65;13.07;;;;;;;;;;4205160;34;20204;-60
2020/12/25 05:51:09;;;;;;;14.82;12.15;;;;;;;;;;4218230;34;20143;-61
2020/12/25 05:53:36;;;;;;;32.58;13.68;;;;;;;;;;4205411;34;20120;-60
2020/12/25 05:56:02;;;;;;;18.60;12.45;;;;;;;;;;4218042;34;20108;-59
2020/12/25 05:58:30;;;;;;;12.27;10.93;;;;;;;;;;4218297;34;20305;-58
2020/12/25 06:00:56;;;;;;;13.20;11.52;;;;;;;;;;4204988;34;20154;-58
2020/12/25 06:03:21;;;;;;;12.37;11.07;;;;;;;;;;4218355;34;20517;-58
2020/12/25 06:05:47;;;;;;;13.30;11.95;;;;;;;;;;4204867;34;20190;-59
2020/12/25 06:08:18;;;;;;;13.00;11.65;;;;;;;;;;4205026;34;20549;-59
2020/12/25 06:10:45;;;;;;;11.95;10.70;;;;;;;;;;4217966;34;20169;-59
2020/12/25 06:13:15;;;;;;;12.55;11.23;;;;;;;;;;4218218;34;20115;-60
2020/12/25 06:15:48;;;;;;;13.38;11.48;;;;;;;;;;4204771;34;20611;-59
2020/12/25 06:18:33;;;;;;;12.52;11.23;;;;;;;;;;4205168;34;20205;-60
2020/12/25 06:21:02;;;;;;;13.02;11.60;;;;;;;;;;4217914;34;20109;-59
2020/12/25 06:23:29;;;;;;;12.75;11.45;;;;;;;;;;4204846;34;20124;-60
2020/12/25 06:25:55;;;;;;;13.50;11.57;;;;;;;;;;4204658;34;20197;-59
2020/12/25 06:28:21;;;;;;;13.88;12.48;;;;;;;;;;4217808;34;20114;-59
2020/12/25 06:30:47;;;;;;;14.15;12.63;;;;;;;;;;4217501;34;20269;-59
2020/12/25 06:33:13;;;;;;;14.75;13.23;;;;;;;;;;4217622;34;20101;-60
2020/12/25 06:35:41;;;;;;;14.18;12.77;;;;;;;;;;4204819;34;20508;-59
2020/12/25 06:38:10;;;;;;;13.85;11.63;;;;;;;;;;4204840;34;20097;-60
2020/12/25 06:40:36;;;;;;;13.38;11.88;;;;;;;;;;4218744;34;20201;-59
2020/12/25 06:43:03;;;;;;;12.25;10.98;;;;;;;;;;4219868;34;20425;-59
2020/12/25 06:45:32;;;;;;;13.82;12.43;;;;;;;;;;4219863;34;20103;-59
2020/12/25 06:48:10;;;;;;;14.45;12.85;;;;;;;;;;4219611;34;20653;-59
2020/12/25 06:50:40;;;;;;;13.88;12.40;;;;;;;;;;4219552;34;20177;-59
2020/12/25 06:53:06;;;;;;;13.25;11.30;;;;;;;;;;4219708;34;20519;-59
2020/12/25 06:55:43;;;;;;;14.55;12.55;;;;;;;;;;4219530;34;20113;-59
2020/12/25 06:58:10;;;;;;;13.95;12.50;;;;;;;;;;4207121;34;20117;-59
2020/12/25 07:00:36;;;;;;;14.05;12.55;;;;;;;;;;4219465;34;20131;-58
2020/12/25 07:03:14;;;;;;;14.82;13.07;;;;;;;;;;4206752;34;20159;-59
2020/12/25 07:05:49;;;;;;;13.20;11.90;;;;;;;;;;4219649;34;20127;-59
2020/12/25 07:08:32;;;;;;;13.77;12.37;;;;;;;;;;4219489;34;20121;-59
2020/12/25 07:11:01;;;;;;;12.27;10.77;;;;;;;;;;4219578;34;20139;-59
2020/12/25 07:13:29;;;;;;;12.98;11.57;;;;;;;;;;4219697;34;20118;-59
2020/12/25 07:15:55;;;;;;;12.13;10.93;;;;;;;;;;4219253;34;20462;-60
2020/12/25 07:18:21;;;;;;;12.82;10.90;;;;;;;;;;4206399;34;20124;-59
2020/12/25 07:20:47;;;;;;;12.23;10.07;;;;;;;;;;4219274;34;20127;-58
2020/12/25 07:23:13;;;;;;;12.60;11.12;;;;;;;;;;4219365;34;20120;-59
2020/12/25 07:25:42;;;;;;;12.93;11.55;;;;;;;;;;4219423;34;20458;-59
2020/12/25 07:28:08;;;;;;;12.90;11.70;;;;;;;;;;4219612;34;20200;-60
2020/12/25 07:30:34;;;;;;;12.43;11.23;;;;;;;;;;4219159;34;20141;-60
2020/12/25 07:33:04;;;;;;;14.70;13.20;;;;;;;;;;4206640;34;20121;-60
2020/12/25 07:35:30;;;;;;;13.05;11.82;;;;;;;;;;4195231;34;20309;-58
2020/12/25 07:37:56;;;;;;;12.98;11.68;;;;;;;;;;4219600;34;20097;-58
2020/12/25 07:40:22;;;;;;;15.57;11.57;;;;;;;;;;4219175;34;20128;-59
2020/12/25 07:42:49;;;;;;;13.02;11.73;;;;;;;;;;4206489;34;20098;-59
2020/12/25 07:45:19;;;;;;;13.00;11.70;;;;;;;;;;4206554;34;20117;-60
2020/12/25 07:47:48;;;;;;;12.95;11.68;;;;;;;;;;4206203;34;20116;-59
2020/12/25 07:50:14;;;;;;;13.35;11.95;;;;;;;;;;4219070;34;20096;-62
2020/12/25 07:52:42;;;;;;;14.20;12.70;;;;;;;;;;4219538;34;20086;-58
2020/12/25 07:55:08;;;;;;;12.82;11.55;;;;;;;;;;4219497;34;20204;-59
2020/12/25 07:57:37;;;;;;;12.82;11.52;;;;;;;;;;4219284;34;20132;-59
2020/12/25 08:00:03;;;;;;;13.15;11.85;;;;;;;;;;4206322;34;20105;-59
2020/12/25 08:02:31;;;;;;;13.05;11.85;;;;;;;;;;4219276;34;20133;-58
2020/12/25 08:04:57;;;;;;;12.75;11.45;;;;;;;;;;4219250;34;20098;-59
2020/12/25 08:07:23;;;;;;;14.20;12.70;;;;;;;;;;4219181;34;20116;-58
2020/12/25 08:09:49;;;;;;;14.25;12.77;;;;;;;;;;4219151;34;20094;-59
2020/12/25 08:12:16;;;;;;;14.68;12.82;;;;;;;;;;4194875;34;20122;-59
2020/12/25 08:14:45;;;;;;;15.43;12.77;;;;;;;;;;4205959;34;20512;-60
2020/12/25 08:17:11;;;;;;;14.30;12.80;;;;;;;;;;4206386;34;20117;-62
2020/12/25 08:19:37;;;;;;;13.20;11.70;;;;;;;;;;4205944;34;20128;-61
2020/12/25 08:22:03;;;;;;;12.85;11.25;;;;;;;;;;4205254;34;20134;-60
2020/12/25 08:24:29;;;;;;;13.18;11.77;;;;;;;;;;4205024;34;20126;-59
2020/12/25 08:27:00;;;;;;;12.18;10.98;;;;;;;;;;4204288;34;20256;-62
2020/12/25 08:29:33;;;;;;;13.02;11.70;;;;;;;;;;4205170;34;20113;-60
2020/12/25 08:32:06;;;;;;;13.20;11.82;;;;;;;;;;4204713;34;20217;-60
2020/12/25 08:34:32;;;;;;;13.65;12.05;;;;;;;;;;4191895;34;20189;-60
2020/12/25 08:36:58;;;;;;;13.30;11.90;;;;;;;;;;4204760;34;20136;-60
2020/12/25 08:39:26;;;;;;;13.90;12.57;;;;;;;;;;4204940;34;20117;-60
2020/12/25 08:41:53;;;;;;;13.02;11.70;;;;;;;;;;4204623;34;20542;-60
2020/12/25 08:44:19;;;;;;;13.70;12.30;;;;;;;;;;4192343;34;20093;-61
2020/12/25 08:46:45;;;;;;;14.90;12.70;;;;;;;;;;4204605;34;20183;-59
2020/12/25 08:49:11;;;;;;;15.23;13.62;;;;;;;;;;4205063;34;20113;-60
2020/12/25 08:51:37;;;;;;;14.87;12.98;;;;;;;;;;4204329;34;20136;-60
2020/12/25 08:54:03;;;;;;;14.57;13.07;;;;;;;;;;4204410;34;20106;-60
2020/12/25 08:56:29;;;;;;;15.60;14.00;;;;;;;;;;4204348;34;20128;-60
2020/12/25 08:58:59;;;;;;;16.42;14.80;;;;;;;;;;4204718;34;20705;-61
2020/12/25 09:01:25;;;;;;;18.60;16.52;;;;;;;;;;4204305;34;20593;-59
2020/12/25 09:03:51;;;;;;;13.55;12.15;;;;;;;;;;4191452;34;20133;-61
2020/12/25 09:06:17;;;;;;;15.00;13.40;;;;;;;;;;4191765;34;20191;-60
2020/12/25 09:08:43;;;;;;;16.77;13.30;;;;;;;;;;4218149;34;20200;-60
2020/12/25 09:11:13;;;;;;;12.98;11.77;;;;;;;;;;4213557;34;20105;-60
2020/12/25 09:13:39;;;;;;;11.57;10.48;;;;;;;;;;4204830;34;20112;-60
2020/12/25 09:16:05;;;;;;;11.77;10.68;;;;;;;;;;4204658;34;20129;-60
2020/12/25 09:18:32;;;;;;;12.40;11.20;;;;;;;;;;4204583;34;20507;-61
2020/12/25 09:20:58;;;;;;;10.55;9.55;;;;;;;;;;4177705;34;20170;-62
2020/12/25 09:23:24;;;;;;;12.60;11.30;;;;;;;;;;4189456;34;20519;-60
2020/12/25 09:25:50;;;;;;;12.37;11.18;;;;;;;;;;4193340;34;20173;-59
2020/12/25 09:28:16;;;;;;;11.73;10.52;;;;;;;;;;4191737;34;20185;-60
2020/12/25 09:30:41;;;;;;;11.63;10.43;;;;;;;;;;4204037;34;20570;-59
2020/12/25 09:33:07;;;;;;;11.15;10.05;;;;;;;;;;4204152;34;20112;-59
2020/12/25 09:35:33;;;;;;;10.75;9.75;;;;;;;;;;4204205;34;20144;-59
2020/12/25 09:37:59;;;;;;;11.10;10.00;;;;;;;;;;4204298;34;20181;-59
2020/12/25 09:40:25;;;;;;;11.63;10.52;;;;;;;;;;4204011;34;20514;-63
2020/12/25 09:42:51;;;;;;;13.82;12.50;;;;;;;;;;4180043;34;20098;-60
2020/12/25 09:45:17;;;;;;;15.65;12.60;;;;;;;;;;4204125;34;20126;-60
2020/12/25 09:47:43;;;;;;;13.60;12.23;;;;;;;;;;4179729;34;20215;-60
2020/12/25 09:50:09;;;;;;;12.45;11.23;;;;;;;;;;4204314;34;20106;-60
2020/12/25 09:52:35;;;;;;;13.10;11.80;;;;;;;;;;4203262;34;20710;-60
2020/12/25 09:55:02;;;;;;;13.40;12.10;;;;;;;;;;4204458;34;20185;-61
2020/12/25 09:57:28;;;;;;;16.65;15.00;;;;;;;;;;4204157;34;20098;-61
2020/12/25 09:59:55;;;;;;;18.92;16.98;;;;;;;;;;4204059;34;20205;-60
2020/12/25 10:02:21;;;;;;;17.73;15.93;;;;;;;;;;4204100;34;20112;-60
2020/12/25 10:04:47;;;;;;;18.90;17.00;;;;;;;;;;4203611;34;20227;-60
2020/12/25 10:07:13;;;;;;;16.37;14.68;;;;;;;;;;4208837;34;20116;-60
2020/12/25 10:09:39;;;;;;;12.23;11.02;;;;;;;;;;4217882;34;20198;-62
2020/12/25 10:12:05;;;;;;;14.25;12.75;;;;;;;;;;4208009;34;20202;-59
2020/12/25 10:14:31;;;;;;;13.32;11.93;;;;;;;;;;4191307;34;20109;-59
2020/12/25 10:17:03;;;;;;;12.70;11.40;;;;;;;;;;4193194;34;20092;-61
2020/12/25 10:19:40;;;;;;;13.73;12.32;;;;;;;;;;4203362;34;20129;-60
2020/12/25 10:22:10;;;;;;;;;;;;;;;;;;4200858;34;20102;-60
2020/12/25 10:24:35;;;;;;;16.90;15.18;;;;;;;;;;4205980;34;20080;-60
2020/12/25 10:27:01;;;;;;;15.38;13.38;;;;;;;;;;4196051;34;20470;-59
2020/12/25 10:29:28;;;;;;;15.23;13.62;;;;;;;;;;4192360;34;20137;-59
2020/12/25 10:31:54;;;;;;;15.23;13.73;;;;;;;;;;4204950;34;20113;-59
2020/12/25 10:34:20;;;;;;;14.98;13.48;;;;;;;;;;4205998;34;20097;-58
2020/12/25 10:36:46;;;;;;;13.38;12.07;;;;;;;;;;4205428;34;20197;-60
2020/12/25 10:39:12;;;;;;;11.80;10.52;;;;;;;;;;4200166;34;20485;-59
2020/12/25 10:41:38;;;;;;;12.88;11.57;;;;;;;;;;4199440;34;20125;-60
2020/12/25 10:44:04;;;;;;;12.80;11.25;;;;;;;;;;4206142;34;20645;-60
2020/12/25 10:46:30;;;;;;;12.90;11.65;;;;;;;;;;4205504;34;20197;-61
2020/12/25 10:48:56;;;;;;;12.68;11.48;;;;;;;;;;4205780;34;20126;-61
2020/12/25 10:51:22;;;;;;;14.48;13.18;;;;;;;;;;4205817;34;20150;-65
2020/12/25 10:53:48;;;;;;;13.15;11.95;;;;;;;;;;4205054;34;20302;-59
2020/12/25 10:56:23;;;;;;;12.30;11.00;;;;;;;;;;4192162;34;20204;-61
2020/12/25 10:58:49;;;;;;;15.02;13.52;;;;;;;;;;4205524;34;20233;-59
2020/12/25 11:01:25;;;;;;;18.65;16.35;;;;;;;;;;4192777;34;20121;-62
2020/12/25 11:03:51;;;;;;;22.42;20.02;;;;;;;;;;4205827;34;20101;-59
2020/12/25 11:06:18;;;;;;;15.00;13.23;;;;;;;;;;4205693;34;20563;-60
2020/12/25 11:08:47;;;;;;;18.83;16.87;;;;;;;;;;4192555;34;20126;-60
2020/12/25 11:11:22;;;;;;;16.90;15.10;;;;;;;;;;4205587;34;21193;-58
2020/12/25 11:13:48;;;;;;;16.67;12.45;;;;;;;;;;4205710;34;20105;-60
2020/12/25 11:16:35;;;;;;;15.13;12.85;;;;;;;;;;4205603;34;20298;-60
2020/12/25 11:19:03;;;;;;;15.00;13.48;;;;;;;;;;4205490;34;20126;-60
2020/12/25 11:21:30;;;;;;;13.88;12.48;;;;;;;;;;4193520;34;20118;-60
2020/12/25 11:23:56;;;;;;;14.05;12.68;;;;;;;;;;4219407;34;20101;-61
2020/12/25 11:26:32;;;;;;;14.55;12.77;;;;;;;;;;4200520;34;20090;-61
2020/12/25 11:29:00;;;;;;;14.82;13.32;;;;;;;;;;4205724;34;20122;-61
2020/12/25 11:31:26;;;;;;;13.80;12.40;;;;;;;;;;4205681;34;20129;-61
2020/12/25 11:33:52;;;;;;;13.50;12.20;;;;;;;;;;4205775;34;20128;-61
2020/12/25 11:36:19;;;;;;;13.62;12.32;;;;;;;;;;4192454;34;20139;-60
2020/12/25 11:38:45;;;;;;;12.75;11.45;;;;;;;;;;4192532;34;20213;-61
2020/12/25 11:41:12;;;;;;;13.40;12.10;;;;;;;;;;4204886;34;20419;-62
2020/12/25 11:43:38;;;;;;;13.32;12.02;;;;;;;;;;4205397;34;20294;-61
2020/12/25 11:46:05;;;;;;;16.37;14.68;;;;;;;;;;4205016;34;20117;-61
2020/12/25 11:48:31;;;;;;;21.37;18.60;;;;;;;;;;4180748;34;20129;-60
2020/12/25 11:50:57;;;;;;;16.90;15.25;;;;;;;;;;4192156;34;20129;-60
2020/12/25 11:53:23;;;;;;;14.55;13.15;;;;;;;;;;4204383;34;20148;-60
2020/12/25 11:55:49;;;;;;;13.62;12.30;;;;;;;;;;4189850;34;20263;-62
2020/12/25 11:58:15;;;;;;;13.68;12.35;;;;;;;;;;4178408;34;20126;-60
2020/12/25 12:00:41;;;;;;;13.88;12.48;;;;;;;;;;4192918;34;20237;-61
2020/12/25 12:03:08;;;;;;;14.05;12.65;;;;;;;;;;4205066;34;20117;-60
2020/12/25 12:05:34;;;;;;;12.95;11.75;;;;;;;;;;4189464;34;20232;-61
2020/12/25 12:08:00;;;;;;;12.73;11.50;;;;;;;;;;4205261;34;20118;-61
2020/12/25 12:10:26;;;;;;;13.20;11.90;;;;;;;;;;4204792;34;20514;-63
2020/12/25 12:12:51;;;;;;;13.88;12.45;;;;;;;;;;4204898;34;20129;-63
2020/12/25 12:15:17;;;;;;;13.38;12.07;;;;;;;;;;4204428;34;20120;-60
2020/12/25 12:17:43;;;;;;;12.80;11.50;;;;;;;;;;4192209;34;20104;-60
2020/12/25 12:20:09;;;;;;;12.90;11.50;;;;;;;;;;4204516;34;20114;-60
2020/12/25 12:22:35;;;;;;;12.48;11.18;;;;;;;;;;4209622;34;20093;-64
2020/12/25 12:25:07;;;;;;;13.23;11.93;;;;;;;;;;4219114;34;20107;-66
2020/12/25 12:27:33;;;;;;;11.52;10.32;;;;;;;;;;4204901;34;20217;-69
2020/12/25 12:30:02;;;;;;;10.73;9.55;;;;;;;;;;4204906;34;20558;-74
2020/12/25 12:32:27;;;;;;;12.10;10.90;;;;;;;;;;4192483;34;20560;-75
2020/12/25 12:34:53;;;;;;;10.65;9.55;;;;;;;;;;4204862;34;20124;-73
2020/12/25 12:37:19;;;;;;;10.20;9.18;;;;;;;;;;4204023;34;20234;-72
2020/12/25 12:39:45;;;;;;;10.68;9.63;;;;;;;;;;4204960;34;20101;-76
2020/12/25 12:42:11;;;;;;;10.70;9.70;;;;;;;;;;4192209;34;20106;-67
2020/12/25 12:44:37;;;;;;;9.93;8.93;;;;;;;;;;4204948;34;20117;-68
2020/12/25 12:47:03;;;;;;;9.60;8.60;;;;;;;;;;4204371;34;20113;-68
2020/12/25 12:49:29;;;;;;;11.10;9.40;;;;;;;;;;4204456;34;20129;-68
2020/12/25 12:51:55;;;;;;;11.43;9.60;;;;;;;;;;4204286;34;20202;-63
2020/12/25 12:54:21;;;;;;;10.98;9.75;;;;;;;;;;4204552;34;20110;-67
2020/12/25 12:56:47;;;;;;;10.20;9.27;;;;;;;;;;4192364;34;20128;-68
2020/12/25 12:59:13;;;;;;;10.80;9.77;;;;;;;;;;4204342;34;20122;-65
2020/12/25 13:01:39;;;;;;;11.23;10.13;;;;;;;;;;4205099;34;20552;-65
2020/12/25 13:04:05;;;;;;;10.20;9.20;;;;;;;;;;4204399;34;20098;-68
2020/12/25 13:06:31;;;;;;;10.40;9.40;;;;;;;;;;4204711;34;20137;-75
2020/12/25 13:08:57;;;;;;;11.07;9.98;;;;;;;;;;4204731;34;20098;-66
2020/12/25 13:11:24;;;;;;;10.10;9.10;;;;;;;;;;4204722;34;20097;-67
2020/12/25 13:13:50;;;;;;;9.73;8.82;;;;;;;;;;4192165;34;20125;-66
2020/12/25 13:16:20;;;;;;;9.52;8.63;;;;;;;;;;4205049;34;20128;-66
2020/12/25 13:18:46;;;;;;;8.65;7.85;;;;;;;;;;4191576;34;20538;-70
2020/12/25 13:21:22;;;;;;;9.57;8.65;;;;;;;;;;4204027;34;20541;-68
2020/12/25 13:23:49;;;;;;;9.45;8.55;;;;;;;;;;4203402;34;20564;-64
2020/12/25 13:26:15;;;;;;;9.70;8.80;;;;;;;;;;4218396;34;20228;-65
2020/12/25 13:28:41;;;;;;;10.45;9.35;;;;;;;;;;4205245;34;20550;-64
2020/12/25 13:31:14;;;;;;;9.13;8.23;;;;;;;;;;4218557;34;20117;-64
2020/12/25 13:33:40;;;;;;;9.35;8.48;;;;;;;;;;4218325;34;20120;-65
2020/12/25 13:36:06;;;;;;;9.20;8.40;;;;;;;;;;4217797;34;20090;-64
2020/12/25 13:38:32;;;;;;;9.18;7.87;;;;;;;;;;4213805;34;20528;-64
2020/12/25 13:40:58;;;;;;;9.55;8.65;;;;;;;;;;4202287;34;20240;-64
2020/12/25 13:43:24;;;;;;;12.02;9.70;;;;;;;;;;4190940;34;20545;-64
2020/12/25 13:45:49;;;;;;;9.48;8.57;;;;;;;;;;4200925;34;20244;-65
2020/12/25 13:48:15;;;;;;;8.65;7.85;;;;;;;;;;4202932;34;20529;-63
2020/12/25 13:50:41;;;;;;;8.48;7.68;;;;;;;;;;4204479;34;20100;-61
2020/12/25 13:53:07;;;;;;;9.43;8.60;;;;;;;;;;4191804;34;20106;-60
2020/12/25 13:55:33;;;;;;;9.48;8.57;;;;;;;;;;4204527;34;20585;-62
2020/12/25 13:57:59;;;;;;;8.98;8.07;;;;;;;;;;4191399;34;20538;-67
2020/12/25 14:00:25;;;;;;;9.60;8.70;;;;;;;;;;4191304;34;20117;-62
2020/12/25 14:02:50;;;;;;;10.65;9.63;;;;;;;;;;4202038;34;20401;-62
2020/12/25 14:05:16;;;;;;;10.38;9.38;;;;;;;;;;4201378;34;20112;-62
2020/12/25 14:07:42;;;;;;;9.63;8.70;;;;;;;;;;4200920;34;20249;-64
2020/12/25 14:10:08;;;;;;;8.52;7.68;;;;;;;;;;4200763;34;20117;-64
2020/12/25 14:12:34;;;;;;;8.32;7.53;;;;;;;;;;4201744;34;20145;-65
2020/12/25 14:15:00;;;;;;;8.65;7.85;;;;;;;;;;4201886;34;20458;-65
2020/12/25 14:17:26;;;;;;;9.77;8.88;;;;;;;;;;4202691;34;20114;-65
2020/12/25 14:19:52;;;;;;;10.32;9.32;;;;;;;;;;4203101;34;20220;-66
2020/12/25 14:22:18;;;;;;;8.23;7.43;;;;;;;;;;4191016;34;20128;-65
2020/12/25 14:24:44;;;;;;;8.02;7.25;;;;;;;;;;4204350;34;20159;-66
2020/12/25 14:27:10;;;;;;;8.98;8.07;;;;;;;;;;4189502;34;20616;-66
2020/12/25 14:29:35;;;;;;;9.27;8.38;;;;;;;;;;4177467;34;20210;-66
2020/12/25 14:32:01;;;;;;;7.90;6.75;;;;;;;;;;4189971;34;20561;-66
2020/12/25 14:34:27;;;;;;;6.55;5.93;;;;;;;;;;4190527;34;20210;-65